createdAt,value
2022-08-13T00:00:19.510Z,16.27
2022-08-13T00:00:45.372Z,16.27
2022-08-13T00:01:05.487Z,16.27
2022-08-13T00:01:43.287Z,16.27
2022-08-13T00:02:11.582Z,16.27
2022-08-13T00:02:43.369Z,16.27
2022-08-13T00:03:59.625Z,16.27
2022-08-13T00:04:20.603Z,16.27
2022-08-13T00:04:45.923Z,16.27
2022-08-13T00:05:43.160Z,16.27
2022-08-13T00:05:45.723Z,16.27
2022-08-13T00:06:10.498Z,16.27
2022-08-13T00:06:53.801Z,16.27
2022-08-13T00:07:14.496Z,16.27
2022-08-13T00:07:47.304Z,16.27
2022-08-13T00:08:19.727Z,16.27
2022-08-13T00:08:42.783Z,16.27
2022-08-13T00:09:05.116Z,16.27
2022-08-13T00:09:41.195Z,16.27
2022-08-13T00:10:11.452Z,16.22
2022-08-13T00:10:43.194Z,16.22
2022-08-13T00:11:15.267Z,16.22
2022-08-13T00:11:59.522Z,16.22
2022-08-13T00:12:19.244Z,16.11
2022-08-13T00:12:43.162Z,16.00
2022-08-13T00:13:04.242Z,16.00
2022-08-13T00:13:41.175Z,16.00
2022-08-13T00:14:11.774Z,16.00
2022-08-13T00:14:40.948Z,15.88
2022-08-13T00:15:15.392Z,15.88
2022-08-13T00:15:48.016Z,15.88
2022-08-13T00:16:19.230Z,15.77
2022-08-13T00:16:41.831Z,15.77
2022-08-13T00:17:04.254Z,15.77
2022-08-13T00:18:01.507Z,15.72
2022-08-13T00:18:11.241Z,15.72
2022-08-13T00:18:43.572Z,15.72
2022-08-13T00:19:15.846Z,15.72
2022-08-13T00:19:52.032Z,15.72
2022-08-13T00:20:20.384Z,15.72
2022-08-13T00:20:42.914Z,15.72
2022-08-13T00:21:05.691Z,15.72
2022-08-13T00:21:58.999Z,15.61
2022-08-13T00:22:43.743Z,15.50
2022-08-13T00:23:21.113Z,15.50
2022-08-13T00:23:57.987Z,15.38
2022-08-13T00:24:31.141Z,15.38
2022-08-13T00:24:52.226Z,15.27
2022-08-13T00:25:10.199Z,15.27
2022-08-13T00:25:45.871Z,15.27
2022-08-13T00:26:11.107Z,15.22
2022-08-13T00:26:43.192Z,15.22
2022-08-13T00:27:14.240Z,15.11
2022-08-13T00:28:01.436Z,15.11
2022-08-13T00:28:19.086Z,15.00
2022-08-13T00:28:41.980Z,15.00
2022-08-13T00:29:04.387Z,15.00
2022-08-13T00:29:42.721Z,14.88
2022-08-13T00:30:11.634Z,14.88
2022-08-13T00:30:43.295Z,14.77
2022-08-13T00:31:14.210Z,14.77
2022-08-13T00:31:47.102Z,14.77
2022-08-13T00:32:19.218Z,14.72
2022-08-13T00:32:42.251Z,14.72
2022-08-13T00:33:04.431Z,14.72
2022-08-13T00:33:47.415Z,14.61
2022-08-13T00:34:11.452Z,14.61
2022-08-13T00:34:43.149Z,14.61
2022-08-13T00:35:17.997Z,14.61
2022-08-13T00:35:47.250Z,14.61
2022-08-13T00:36:29.249Z,14.61
2022-08-13T00:36:42.375Z,14.61
2022-08-13T00:37:06.633Z,14.61
2022-08-13T00:37:49.447Z,14.61
2022-08-13T00:38:11.216Z,14.61
2022-08-13T00:38:43.974Z,14.61
2022-08-13T00:39:14.222Z,14.61
2022-08-13T00:40:18.553Z,14.61
2022-08-13T00:40:35.535Z,14.61
2022-08-13T00:41:07.165Z,14.61
2022-08-13T00:41:56.867Z,14.61
2022-08-13T00:42:11.231Z,14.61
2022-08-13T00:42:51.700Z,14.61
2022-08-13T00:43:20.873Z,14.61
2022-08-13T00:43:47.773Z,14.61
2022-08-13T00:44:19.411Z,14.61
2022-08-13T00:44:41.979Z,14.61
2022-08-13T00:45:08.759Z,14.61
2022-08-13T00:45:40.432Z,14.61
2022-08-13T00:46:11.443Z,14.61
2022-08-13T00:46:43.189Z,14.72
2022-08-13T00:47:15.099Z,14.72
2022-08-13T00:47:51.394Z,14.72
2022-08-13T00:48:19.915Z,14.72
2022-08-13T00:48:46.970Z,14.72
2022-08-13T00:49:05.059Z,14.72
2022-08-13T00:49:39.515Z,14.72
2022-08-13T00:50:11.271Z,14.61
2022-08-13T00:50:44.346Z,14.61
2022-08-13T00:51:14.251Z,14.50
2022-08-13T00:51:58.328Z,14.50
2022-08-13T00:52:19.487Z,14.38
2022-08-13T00:52:42.207Z,14.38
2022-08-13T00:53:04.774Z,14.38
2022-08-13T00:53:42.487Z,14.38
2022-08-13T00:54:11.466Z,14.27
2022-08-13T00:54:43.574Z,14.27
2022-08-13T00:55:15.502Z,14.27
2022-08-13T00:55:47.827Z,14.22
2022-08-13T00:56:19.814Z,14.22
2022-08-13T00:56:43.360Z,14.22
2022-08-13T00:57:04.794Z,14.22
2022-08-13T00:57:52.896Z,14.22
2022-08-13T00:58:11.667Z,14.22
2022-08-13T00:58:43.733Z,14.11
2022-08-13T00:59:14.310Z,14.11
2022-08-13T00:59:47.987Z,14.11
2022-08-13T01:00:19.785Z,14.11
2022-08-13T01:00:42.011Z,14.11
2022-08-13T01:01:04.434Z,14.11
2022-08-13T01:01:39.315Z,14.11
2022-08-13T01:02:11.571Z,14.11
2022-08-13T01:02:55.943Z,14.11
2022-08-13T01:03:17.141Z,14.11
2022-08-13T01:04:10.209Z,14.00
2022-08-13T01:04:20.068Z,14.00
2022-08-13T01:04:41.817Z,14.00
2022-08-13T01:05:05.425Z,14.00
2022-08-13T01:05:41.112Z,13.88
2022-08-13T01:06:11.609Z,13.88
2022-08-13T01:06:43.341Z,13.88
2022-08-13T01:07:47.195Z,13.88
2022-08-13T01:07:58.669Z,13.88
2022-08-13T01:08:18.058Z,13.77
2022-08-13T01:08:54.304Z,13.77
2022-08-13T01:10:16.936Z,13.77
2022-08-13T01:10:28.025Z,13.72
2022-08-13T01:10:54.941Z,13.72
2022-08-13T01:11:16.721Z,13.72
2022-08-13T01:11:47.526Z,13.72
2022-08-13T01:12:26.460Z,13.61
2022-08-13T01:12:42.388Z,13.61
2022-08-13T01:13:04.657Z,13.61
2022-08-13T01:13:39.076Z,13.61
2022-08-13T01:14:11.426Z,13.50
2022-08-13T01:14:43.581Z,13.50
2022-08-13T01:15:15.777Z,13.50
2022-08-13T01:15:55.824Z,13.50
2022-08-13T01:16:19.583Z,13.50
2022-08-13T01:16:41.952Z,13.50
2022-08-13T01:17:07.582Z,13.38
2022-08-13T01:17:47.105Z,13.38
2022-08-13T01:18:11.215Z,13.38
2022-08-13T01:18:43.031Z,13.27
2022-08-13T01:19:14.170Z,13.27
2022-08-13T01:19:53.533Z,13.27
2022-08-13T01:20:19.330Z,13.27
2022-08-13T01:20:41.964Z,13.27
2022-08-13T01:21:09.483Z,13.27
2022-08-13T01:21:40.019Z,13.22
2022-08-13T01:22:11.101Z,13.22
2022-08-13T01:22:45.705Z,13.22
2022-08-13T01:23:14.410Z,13.22
2022-08-13T01:24:03.138Z,13.22
2022-08-13T01:24:19.537Z,13.22
2022-08-13T01:24:42.163Z,13.22
2022-08-13T01:25:05.989Z,13.11
2022-08-13T01:25:53.429Z,13.11
2022-08-13T01:26:14.715Z,13.11
2022-08-13T01:26:46.822Z,13.11
2022-08-13T01:27:14.164Z,13.11
2022-08-13T01:27:47.047Z,13.22
2022-08-13T01:28:19.285Z,13.27
2022-08-13T01:28:42.737Z,13.27
2022-08-13T01:29:04.531Z,13.38
2022-08-13T01:29:41.379Z,13.50
2022-08-13T01:30:11.325Z,13.50
2022-08-13T01:30:43.123Z,13.50
2022-08-13T01:31:17.465Z,13.50
2022-08-13T01:31:47.824Z,13.50
2022-08-13T01:32:19.452Z,13.50
2022-08-13T01:32:54.414Z,13.50
2022-08-13T01:33:04.453Z,13.50
2022-08-13T01:33:48.093Z,13.38
2022-08-13T01:34:22.001Z,13.38
2022-08-13T01:34:43.034Z,13.38
2022-08-13T01:35:14.226Z,13.38
2022-08-13T01:35:52.306Z,13.38
2022-08-13T01:36:38.414Z,13.38
2022-08-13T01:37:07.323Z,13.27
2022-08-13T01:37:39.170Z,13.27
2022-08-13T01:38:11.278Z,13.27
2022-08-13T01:38:43.341Z,13.27
2022-08-13T01:39:17.731Z,13.27
2022-08-13T01:39:47.509Z,13.22
2022-08-13T01:40:19.350Z,13.22
2022-08-13T01:40:42.011Z,13.22
2022-08-13T01:41:04.390Z,13.22
2022-08-13T01:41:54.198Z,13.22
2022-08-13T01:42:11.114Z,13.22
2022-08-13T01:42:47.527Z,13.22
2022-08-13T01:43:22.185Z,13.11
2022-08-13T01:43:47.490Z,13.11
2022-08-13T01:44:19.112Z,13.11
2022-08-13T01:44:42.406Z,13.11
2022-08-13T01:45:05.360Z,13.11
2022-08-13T01:45:39.027Z,13.11
2022-08-13T01:46:17.662Z,13.11
2022-08-13T01:46:43.276Z,13.11
2022-08-13T01:47:14.990Z,13.11
2022-08-13T01:47:57.687Z,13.11
2022-08-13T01:48:19.530Z,13.11
2022-08-13T01:48:41.938Z,13.11
2022-08-13T01:49:08.179Z,13.11
2022-08-13T01:49:44.051Z,13.00
2022-08-13T01:50:11.408Z,13.00
2022-08-13T01:50:44.632Z,13.00
2022-08-13T01:51:19.280Z,13.00
2022-08-13T01:51:47.118Z,13.00
2022-08-13T01:52:19.187Z,13.00
2022-08-13T01:52:42.364Z,13.00
2022-08-13T01:53:04.980Z,13.00
2022-08-13T01:53:39.531Z,13.11
2022-08-13T01:54:30.192Z,13.11
2022-08-13T01:54:48.720Z,13.11
2022-08-13T01:55:13.612Z,13.00
2022-08-13T01:56:14.888Z,13.00
2022-08-13T01:56:35.349Z,13.00
2022-08-13T01:57:07.150Z,13.00
2022-08-13T01:57:44.307Z,13.00
2022-08-13T01:58:11.506Z,13.00
2022-08-13T01:59:09.425Z,12.88
2022-08-13T01:59:14.176Z,12.88
2022-08-13T02:00:02.984Z,12.88
2022-08-13T02:00:27.355Z,12.88
2022-08-13T02:00:41.893Z,12.88
2022-08-13T02:01:09.614Z,12.77
2022-08-13T02:01:42.331Z,12.77
2022-08-13T02:02:34.136Z,12.77
2022-08-13T02:02:43.785Z,12.77
2022-08-13T02:03:14.247Z,12.72
2022-08-13T02:03:47.887Z,12.72
2022-08-13T02:04:24.653Z,12.72
2022-08-13T02:04:42.056Z,12.72
2022-08-13T02:05:04.402Z,12.72
2022-08-13T02:06:22.145Z,12.72
2022-08-13T02:06:31.391Z,12.72
2022-08-13T02:06:50.701Z,12.72
2022-08-13T02:07:16.854Z,12.72
2022-08-13T02:08:02.831Z,12.72
2022-08-13T02:08:19.968Z,12.72
2022-08-13T02:08:42.529Z,12.72
2022-08-13T02:09:58.186Z,12.72
2022-08-13T02:10:11.699Z,12.72
2022-08-13T02:10:42.995Z,12.72
2022-08-13T02:11:14.676Z,12.72
2022-08-13T02:11:47.123Z,12.72
2022-08-13T02:12:33.043Z,12.61
2022-08-13T02:12:42.650Z,12.61
2022-08-13T02:13:04.446Z,12.61
2022-08-13T02:13:39.140Z,12.61
2022-08-13T02:14:11.118Z,12.61
2022-08-13T02:14:53.654Z,12.61
2022-08-13T02:15:14.193Z,12.61
2022-08-13T02:15:51.215Z,12.61
2022-08-13T02:16:18.994Z,12.61
2022-08-13T02:16:41.802Z,12.72
2022-08-13T02:17:04.239Z,12.72
2022-08-13T02:18:03.110Z,12.72
2022-08-13T02:18:13.410Z,12.72
2022-08-13T02:18:43.031Z,12.77
2022-08-13T02:19:19.664Z,12.77
2022-08-13T02:19:47.116Z,12.77
2022-08-13T02:20:20.692Z,12.77
2022-08-13T02:20:42.770Z,12.77
2022-08-13T02:21:17.654Z,12.72
2022-08-13T02:21:39.371Z,12.72
2022-08-13T02:22:11.198Z,12.72
2022-08-13T02:22:43.173Z,12.72
2022-08-13T02:23:14.269Z,12.72
2022-08-13T02:23:59.771Z,12.72
2022-08-13T02:24:21.512Z,12.61
2022-08-13T02:24:41.721Z,12.61
2022-08-13T02:25:39.569Z,12.61
2022-08-13T02:26:11.160Z,12.61
2022-08-13T02:26:43.094Z,12.61
2022-08-13T02:27:14.235Z,12.61
2022-08-13T02:27:57.527Z,12.50
2022-08-13T02:28:27.251Z,12.50
2022-08-13T02:28:42.443Z,12.50
2022-08-13T02:29:04.912Z,12.50
2022-08-13T02:29:39.201Z,12.50
2022-08-13T02:30:11.223Z,12.50
2022-08-13T02:30:43.100Z,12.50
2022-08-13T02:31:25.713Z,12.50
2022-08-13T02:32:17.696Z,12.50
2022-08-13T02:32:51.744Z,12.50
2022-08-13T02:33:22.990Z,12.50
2022-08-13T02:33:45.706Z,12.50
2022-08-13T02:34:08.548Z,12.38
2022-08-13T02:34:43.181Z,12.50
2022-08-13T02:35:14.281Z,12.50
2022-08-13T02:35:48.114Z,12.50
2022-08-13T02:36:22.585Z,12.50
2022-08-13T02:36:42.282Z,12.50
2022-08-13T02:37:20.964Z,12.50
2022-08-13T02:37:57.092Z,12.50
2022-08-13T02:38:35.452Z,12.50
2022-08-13T02:38:59.940Z,12.50
2022-08-13T02:39:43.343Z,12.50
2022-08-13T02:39:54.871Z,12.50
2022-08-13T02:40:17.294Z,12.50
2022-08-13T02:40:40.140Z,12.50
2022-08-13T02:41:04.049Z,12.50
2022-08-13T02:41:39.510Z,12.50
2022-08-13T02:42:16.614Z,12.38
2022-08-13T02:42:43.191Z,12.38
2022-08-13T02:43:15.602Z,12.38
2022-08-13T02:43:54.905Z,12.38
2022-08-13T02:44:19.214Z,12.38
2022-08-13T02:44:42.048Z,12.38
2022-08-13T02:45:10.886Z,12.38
2022-08-13T02:45:43.869Z,12.38
2022-08-13T02:46:11.054Z,12.38
2022-08-13T02:46:43.342Z,12.38
2022-08-13T02:47:14.684Z,12.38
2022-08-13T02:47:48.438Z,12.38
2022-08-13T02:48:22.296Z,12.38
2022-08-13T02:48:42.430Z,12.38
2022-08-13T02:49:16.386Z,12.38
2022-08-13T02:49:44.419Z,12.38
2022-08-13T02:50:43.686Z,12.38
2022-08-13T02:51:14.625Z,12.38
2022-08-13T02:52:09.669Z,12.38
2022-08-13T02:52:20.181Z,12.38
2022-08-13T02:52:50.603Z,12.38
2022-08-13T02:53:06.717Z,12.38
2022-08-13T02:53:39.579Z,12.38
2022-08-13T02:54:11.259Z,12.38
2022-08-13T02:54:45.677Z,12.38
2022-08-13T02:55:14.649Z,12.27
2022-08-13T02:55:47.606Z,12.27
2022-08-13T02:56:19.694Z,12.27
2022-08-13T02:56:42.674Z,12.27
2022-08-13T02:57:05.622Z,12.27
2022-08-13T02:57:39.771Z,12.27
2022-08-13T02:58:15.231Z,12.22
2022-08-13T02:58:43.210Z,12.22
2022-08-13T02:59:29.343Z,12.22
2022-08-13T03:00:14.373Z,12.22
2022-08-13T03:00:46.046Z,12.11
2022-08-13T03:01:23.183Z,12.11
2022-08-13T03:01:54.391Z,12.11
2022-08-13T03:02:08.266Z,12.11
2022-08-13T03:02:43.240Z,12.11
2022-08-13T03:03:15.730Z,12.11
2022-08-13T03:03:47.190Z,12.00
2022-08-13T03:04:19.111Z,12.00
2022-08-13T03:04:41.835Z,12.00
2022-08-13T03:05:06.298Z,12.00
2022-08-13T03:05:51.369Z,12.00
2022-08-13T03:06:11.005Z,12.00
2022-08-13T03:06:42.978Z,12.00
2022-08-13T03:07:14.341Z,12.00
2022-08-13T03:07:53.376Z,12.00
2022-08-13T03:08:39.781Z,12.11
2022-08-13T03:08:51.850Z,12.11
2022-08-13T03:09:23.186Z,12.11
2022-08-13T03:09:46.428Z,12.11
2022-08-13T03:10:08.320Z,12.11
2022-08-13T03:10:43.033Z,12.22
2022-08-13T03:11:14.996Z,12.22
2022-08-13T03:11:47.037Z,12.22
2022-08-13T03:12:19.399Z,12.22
2022-08-13T03:12:42.416Z,12.22
2022-08-13T03:13:04.915Z,12.22
2022-08-13T03:13:44.656Z,12.22
2022-08-13T03:14:11.216Z,12.22
2022-08-13T03:14:43.487Z,12.22
2022-08-13T03:15:14.345Z,12.22
2022-08-13T03:15:55.460Z,12.22
2022-08-13T03:16:19.624Z,12.22
2022-08-13T03:16:41.773Z,12.22
2022-08-13T03:17:04.209Z,12.22
2022-08-13T03:17:39.216Z,12.22
2022-08-13T03:18:10.987Z,12.22
2022-08-13T03:18:52.975Z,12.22
2022-08-13T03:19:15.842Z,12.22
2022-08-13T03:19:47.553Z,12.22
2022-08-13T03:20:20.286Z,12.22
2022-08-13T03:20:42.629Z,12.11
2022-08-13T03:21:05.013Z,12.11
2022-08-13T03:21:43.600Z,12.11
2022-08-13T03:22:11.301Z,12.11
2022-08-13T03:22:43.091Z,12.11
2022-08-13T03:23:14.376Z,12.00
2022-08-13T03:23:50.218Z,12.00
2022-08-13T03:24:22.529Z,12.00
2022-08-13T03:24:41.806Z,12.00
2022-08-13T03:25:04.435Z,12.00
2022-08-13T03:25:43.931Z,12.00
2022-08-13T03:26:11.245Z,12.00
2022-08-13T03:26:42.968Z,11.88
2022-08-13T03:27:14.552Z,11.88
2022-08-13T03:27:50.743Z,11.88
2022-08-13T03:28:19.612Z,11.88
2022-08-13T03:28:41.849Z,11.88
2022-08-13T03:29:04.250Z,11.88
2022-08-13T03:30:03.028Z,11.88
2022-08-13T03:30:11.957Z,11.88
2022-08-13T03:30:42.960Z,11.88
2022-08-13T03:31:14.206Z,11.88
2022-08-13T03:31:54.947Z,11.88
2022-08-13T03:32:30.569Z,11.88
2022-08-13T03:32:44.295Z,11.88
2022-08-13T03:33:04.514Z,11.77
2022-08-13T03:33:39.175Z,11.77
2022-08-13T03:34:11.176Z,11.77
2022-08-13T03:34:43.141Z,11.77
2022-08-13T03:35:14.944Z,11.77
2022-08-13T03:35:48.593Z,11.77
2022-08-13T03:36:18.917Z,11.77
2022-08-13T03:36:42.125Z,11.72
2022-08-13T03:37:04.425Z,11.72
2022-08-13T03:37:39.075Z,11.72
2022-08-13T03:38:11.055Z,11.72
2022-08-13T03:38:43.310Z,11.72
2022-08-13T03:39:14.601Z,11.72
2022-08-13T03:39:46.976Z,11.72
2022-08-13T03:40:19.155Z,11.72
2022-08-13T03:40:46.994Z,11.72
2022-08-13T03:41:04.271Z,11.72
2022-08-13T03:41:39.652Z,11.61
2022-08-13T03:42:11.904Z,11.61
2022-08-13T03:42:53.174Z,11.61
2022-08-13T03:43:15.956Z,11.61
2022-08-13T03:43:54.251Z,11.61
2022-08-13T03:44:20.174Z,11.61
2022-08-13T03:44:42.874Z,11.61
2022-08-13T03:45:05.654Z,11.61
2022-08-13T03:45:46.083Z,11.61
2022-08-13T03:46:14.695Z,11.61
2022-08-13T03:46:37.860Z,11.61
2022-08-13T03:47:26.793Z,11.50
2022-08-13T03:47:47.071Z,11.50
2022-08-13T03:48:19.778Z,11.50
2022-08-13T03:48:42.265Z,11.50
2022-08-13T03:49:06.211Z,11.50
2022-08-13T03:49:40.877Z,11.50
2022-08-13T03:50:11.048Z,11.50
2022-08-13T03:50:45.481Z,11.50
2022-08-13T03:51:15.422Z,11.38
2022-08-13T03:51:52.896Z,11.38
2022-08-13T03:52:18.911Z,11.50
2022-08-13T03:52:41.908Z,11.50
2022-08-13T03:53:10.456Z,11.50
2022-08-13T03:53:55.644Z,11.61
2022-08-13T03:54:26.976Z,11.61
2022-08-13T03:54:50.019Z,11.61
2022-08-13T03:55:12.315Z,11.61
2022-08-13T03:55:48.649Z,11.61
2022-08-13T03:56:19.172Z,11.61
2022-08-13T03:56:43.216Z,11.61
2022-08-13T03:57:16.387Z,11.61
2022-08-13T03:58:02.478Z,11.61
2022-08-13T03:58:12.747Z,11.50
2022-08-13T03:58:43.117Z,11.50
2022-08-13T03:59:14.262Z,11.50
2022-08-13T03:59:49.157Z,11.50
2022-08-13T04:00:19.223Z,11.50
2022-08-13T04:00:42.677Z,11.50
2022-08-13T04:01:04.840Z,11.50
2022-08-13T04:01:49.732Z,11.50
2022-08-13T04:02:12.241Z,11.50
2022-08-13T04:02:43.206Z,11.50
2022-08-13T04:03:15.722Z,11.38
2022-08-13T04:03:47.013Z,11.38
2022-08-13T04:04:18.930Z,11.38
2022-08-13T04:04:43.293Z,11.38
2022-08-13T04:05:04.701Z,11.38
2022-08-13T04:05:49.076Z,11.38
2022-08-13T04:06:10.970Z,11.50
2022-08-13T04:06:43.534Z,11.50
2022-08-13T04:07:14.266Z,11.50
2022-08-13T04:07:47.064Z,11.50
2022-08-13T04:08:18.945Z,11.50
2022-08-13T04:08:43.853Z,11.50
2022-08-13T04:09:03.930Z,11.50
2022-08-13T04:09:39.174Z,11.50
2022-08-13T04:10:11.092Z,11.50
2022-08-13T04:10:51.639Z,11.50
2022-08-13T04:11:20.517Z,11.50
2022-08-13T04:12:01.796Z,11.50
2022-08-13T04:12:18.994Z,11.50
2022-08-13T04:12:44.419Z,11.50
2022-08-13T04:13:06.448Z,11.50
2022-08-13T04:14:36.788Z,11.50
2022-08-13T04:14:44.622Z,11.50
2022-08-13T04:15:14.653Z,11.50
2022-08-13T04:15:48.250Z,11.50
2022-08-13T04:16:19.097Z,11.50
2022-08-13T04:16:41.845Z,11.50
2022-08-13T04:17:04.360Z,11.50
2022-08-13T04:17:39.053Z,11.50
2022-08-13T04:18:11.889Z,11.50
2022-08-13T04:18:44.905Z,11.50
2022-08-13T04:19:17.673Z,11.50
2022-08-13T04:19:48.655Z,11.50
2022-08-13T04:20:19.501Z,11.50
2022-08-13T04:20:42.065Z,11.50
2022-08-13T04:21:05.167Z,11.50
2022-08-13T04:21:41.611Z,11.50
2022-08-13T04:22:11.349Z,11.50
2022-08-13T04:22:45.487Z,11.50
2022-08-13T04:23:14.904Z,11.50
2022-08-13T04:23:49.119Z,11.50
2022-08-13T04:24:21.357Z,11.38
2022-08-13T04:24:42.544Z,11.38
2022-08-13T04:25:24.603Z,11.38
2022-08-13T04:25:40.104Z,11.38
2022-08-13T04:26:11.601Z,11.50
2022-08-13T04:26:47.674Z,11.50
2022-08-13T04:27:14.590Z,11.50
2022-08-13T04:27:47.026Z,11.50
2022-08-13T04:28:19.621Z,11.50
2022-08-13T04:28:42.710Z,11.50
2022-08-13T04:29:04.932Z,11.50
2022-08-13T04:29:50.060Z,11.50
2022-08-13T04:30:11.729Z,11.38
2022-08-13T04:30:43.071Z,11.38
2022-08-13T04:31:14.386Z,11.38
2022-08-13T04:31:51.543Z,11.38
2022-08-13T04:32:24.058Z,11.38
2022-08-13T04:32:58.050Z,11.50
2022-08-13T04:34:14.930Z,11.50
2022-08-13T04:34:47.008Z,11.50
2022-08-13T04:35:16.256Z,11.38
2022-08-13T04:35:58.397Z,11.38
2022-08-13T04:36:19.513Z,11.50
2022-08-13T04:36:42.218Z,11.50
2022-08-13T04:37:05.408Z,11.50
2022-08-13T04:37:46.146Z,11.50
2022-08-13T04:38:10.963Z,11.50
2022-08-13T04:38:44.783Z,11.50
2022-08-13T04:39:15.987Z,11.50
2022-08-13T04:40:08.328Z,11.50
2022-08-13T04:40:30.228Z,11.50
2022-08-13T04:40:53.513Z,11.50
2022-08-13T04:41:04.621Z,11.50
2022-08-13T04:41:39.398Z,11.50
2022-08-13T04:42:21.421Z,11.50
2022-08-13T04:42:44.765Z,11.50
2022-08-13T04:43:20.222Z,11.50
2022-08-13T04:44:01.293Z,11.50
2022-08-13T04:44:19.749Z,11.50
2022-08-13T04:44:42.116Z,11.50
2022-08-13T04:45:11.203Z,11.61
2022-08-13T04:45:39.690Z,11.61
2022-08-13T04:46:11.181Z,11.61
2022-08-13T04:46:45.726Z,11.61
2022-08-13T04:47:14.979Z,11.61
2022-08-13T04:47:51.552Z,11.61
2022-08-13T04:48:19.029Z,11.61
2022-08-13T04:48:46.420Z,11.61
2022-08-13T04:49:10.321Z,11.72
2022-08-13T04:49:34.804Z,11.72
2022-08-13T04:50:11.420Z,11.72
2022-08-13T04:50:43.021Z,11.72
2022-08-13T04:51:14.307Z,11.72
2022-08-13T04:51:48.491Z,11.72
2022-08-13T04:52:19.061Z,11.72
2022-08-13T04:52:49.390Z,11.72
2022-08-13T04:53:05.723Z,11.72
2022-08-13T04:53:50.472Z,11.77
2022-08-13T04:54:16.470Z,11.77
2022-08-13T04:54:43.029Z,11.77
2022-08-13T04:55:15.739Z,11.77
2022-08-13T04:56:08.037Z,11.77
2022-08-13T04:56:19.006Z,11.77
2022-08-13T04:56:42.378Z,11.77
2022-08-13T04:57:04.505Z,11.77
2022-08-13T04:57:55.201Z,11.77
2022-08-13T04:58:11.124Z,11.77
2022-08-13T04:58:43.179Z,11.77
2022-08-13T04:59:15.862Z,11.88
2022-08-13T04:59:47.030Z,11.88
2022-08-13T05:00:19.025Z,11.88
2022-08-13T05:00:42.409Z,11.88
2022-08-13T05:01:19.753Z,12.00
2022-08-13T05:01:59.459Z,12.00
2022-08-13T05:02:27.102Z,12.11
2022-08-13T05:02:51.424Z,12.11
2022-08-13T05:03:18.413Z,12.11
2022-08-13T05:03:46.943Z,12.11
2022-08-13T05:04:23.916Z,12.11
2022-08-13T05:04:53.008Z,12.11
2022-08-13T05:05:04.077Z,12.22
2022-08-13T05:05:42.342Z,12.22
2022-08-13T05:06:27.150Z,12.22
2022-08-13T05:06:51.838Z,12.22
2022-08-13T05:07:12.246Z,12.22
2022-08-13T05:07:46.963Z,12.27
2022-08-13T05:08:19.005Z,12.27
2022-08-13T05:08:41.908Z,12.27
2022-08-13T05:09:05.092Z,12.27
2022-08-13T05:09:39.348Z,12.27
2022-08-13T05:10:10.998Z,12.38
2022-08-13T05:10:43.204Z,12.38
2022-08-13T05:11:21.862Z,12.38
2022-08-13T05:12:04.341Z,12.38
2022-08-13T05:12:42.080Z,12.50
2022-08-13T05:12:46.452Z,12.50
2022-08-13T05:13:06.093Z,12.50
2022-08-13T05:13:43.432Z,12.50
2022-08-13T05:14:12.280Z,12.61
2022-08-13T05:14:43.288Z,12.61
2022-08-13T05:15:38.255Z,12.61
2022-08-13T05:15:48.515Z,12.61
2022-08-13T05:16:19.195Z,12.72
2022-08-13T05:16:42.116Z,12.72
2022-08-13T05:17:04.467Z,12.72
2022-08-13T05:17:46.816Z,12.72
2022-08-13T05:18:12.895Z,12.72
2022-08-13T05:18:42.951Z,12.77
2022-08-13T05:19:15.882Z,12.77
2022-08-13T05:19:46.977Z,12.77
2022-08-13T05:20:35.451Z,12.77
2022-08-13T05:20:43.372Z,12.88
2022-08-13T05:21:05.926Z,12.88
2022-08-13T05:21:59.133Z,12.88
2022-08-13T05:22:15.986Z,12.88
2022-08-13T05:23:18.150Z,13.00
2022-08-13T05:26:39.222Z,13.11
2022-08-13T05:27:07.152Z,13.22
2022-08-13T05:27:33.239Z,13.22
2022-08-13T05:27:53.655Z,13.22
2022-08-13T05:28:17.135Z,13.22
2022-08-13T05:28:39.755Z,13.22
2022-08-13T05:29:03.072Z,13.22
2022-08-13T05:29:51.546Z,13.27
2022-08-13T05:30:43.213Z,13.27
2022-08-13T05:31:14.832Z,13.27
2022-08-13T05:31:55.613Z,13.38
2022-08-13T05:32:18.982Z,13.38
2022-08-13T05:32:42.379Z,13.38
2022-08-13T05:33:09.926Z,13.38
2022-08-13T05:33:54.051Z,13.50
2022-08-13T05:34:11.006Z,13.50
2022-08-13T05:34:46.459Z,13.50
2022-08-13T05:35:14.611Z,13.50
2022-08-13T05:37:00.971Z,13.61
2022-08-13T05:38:32.191Z,13.88
2022-08-13T05:38:49.773Z,13.88
2022-08-13T05:39:12.530Z,14.11
2022-08-13T05:39:48.003Z,14.50
2022-08-13T05:40:36.945Z,14.61
2022-08-13T05:40:41.872Z,14.72
2022-08-13T05:41:03.971Z,14.77
2022-08-13T05:41:41.526Z,14.77
2022-08-13T05:42:16.508Z,14.77
2022-08-13T05:42:43.851Z,14.77
2022-08-13T05:43:15.003Z,14.77
2022-08-13T05:43:51.489Z,14.77
2022-08-13T05:44:19.457Z,14.77
2022-08-13T05:44:41.937Z,14.77
2022-08-13T05:45:08.859Z,14.77
2022-08-13T05:45:50.579Z,14.77
2022-08-13T05:46:10.906Z,14.77
2022-08-13T05:46:42.967Z,14.77
2022-08-13T05:47:16.461Z,14.88
2022-08-13T05:47:47.144Z,14.88
2022-08-13T05:48:19.244Z,14.88
2022-08-13T05:48:41.999Z,14.88
2022-08-13T05:49:04.260Z,14.88
2022-08-13T05:49:54.967Z,15.00
2022-08-13T05:50:11.482Z,15.11
2022-08-13T05:50:43.160Z,15.11
2022-08-13T05:51:14.402Z,15.27
2022-08-13T05:52:33.253Z,15.38
2022-08-13T05:52:49.515Z,15.50
2022-08-13T05:53:23.276Z,15.72
2022-08-13T05:53:52.916Z,15.72
2022-08-13T05:56:17.700Z,15.77
2022-08-13T05:56:46.005Z,15.77
2022-08-13T05:57:23.142Z,15.77
2022-08-13T05:57:51.245Z,15.77
2022-08-13T05:58:12.207Z,15.77
2022-08-13T05:58:43.128Z,15.77
2022-08-13T05:59:15.959Z,15.88
2022-08-13T05:59:50.053Z,15.88
2022-08-13T06:00:19.011Z,15.88
2022-08-13T06:00:42.179Z,15.88
2022-08-13T06:01:12.394Z,16.00
2022-08-13T06:01:39.011Z,16.00
2022-08-13T06:02:11.517Z,16.00
2022-08-13T06:02:43.059Z,16.11
2022-08-13T06:03:15.280Z,16.11
2022-08-13T06:04:25.309Z,16.22
2022-08-13T06:04:47.116Z,16.22
2022-08-13T06:05:46.307Z,16.27
2022-08-13T06:05:56.898Z,16.38
2022-08-13T06:06:34.809Z,16.50
2022-08-13T06:06:51.280Z,16.50
2022-08-13T06:07:12.146Z,16.72
2022-08-13T06:07:50.398Z,16.77
2022-08-13T06:08:41.789Z,16.88
2022-08-13T06:08:51.126Z,17.00
2022-08-13T06:09:22.963Z,17.11
2022-08-13T06:09:46.105Z,17.22
2022-08-13T06:10:08.420Z,17.27
2022-08-13T06:10:43.011Z,17.50
2022-08-13T06:11:18.283Z,17.61
2022-08-13T06:12:08.125Z,17.72
2022-08-13T06:12:41.576Z,17.88
2022-08-13T06:13:13.567Z,17.88
2022-08-13T06:14:04.575Z,18.11
2022-08-13T06:14:11.120Z,18.27
2022-08-13T06:14:54.029Z,18.38
2022-08-13T06:15:15.410Z,18.61
2022-08-13T06:16:04.493Z,18.72
2022-08-13T06:16:49.586Z,18.77
2022-08-13T06:17:12.472Z,19.11
2022-08-13T06:17:40.498Z,19.27
2022-08-13T06:18:11.019Z,19.50
2022-08-13T06:18:52.278Z,19.72
2022-08-13T06:19:14.676Z,19.77
2022-08-13T06:19:50.549Z,19.88
2022-08-13T06:20:14.563Z,20.00
2022-08-13T06:20:57.679Z,20.11
2022-08-13T06:21:47.212Z,20.38
2022-08-13T06:22:13.182Z,20.61
2022-08-13T06:22:43.612Z,20.61
2022-08-13T06:23:14.522Z,20.77
2022-08-13T06:23:46.944Z,21.22
2022-08-13T06:24:19.283Z,21.72
2022-08-13T06:24:53.902Z,21.88
2022-08-13T06:25:09.526Z,22.11
2022-08-13T06:25:43.021Z,22.11
2022-08-13T06:26:11.361Z,22.11
2022-08-13T06:26:42.839Z,22.11
2022-08-13T06:27:15.256Z,22.11
2022-08-13T06:27:54.878Z,22.38
2022-08-13T06:28:21.365Z,22.61
2022-08-13T06:28:42.106Z,22.72
2022-08-13T06:29:10.604Z,22.72
2022-08-13T06:29:39.459Z,22.72
2022-08-13T06:30:11.217Z,22.72
2022-08-13T06:30:45.360Z,22.50
2022-08-13T06:31:25.382Z,22.50
2022-08-13T06:31:47.425Z,22.38
2022-08-13T06:32:35.007Z,22.38
2022-08-13T06:34:06.395Z,22.27
2022-08-13T06:34:34.144Z,22.11
2022-08-13T06:34:43.421Z,21.88
2022-08-13T06:35:14.447Z,21.77
2022-08-13T06:35:56.041Z,21.77
2022-08-13T06:36:19.042Z,21.77
2022-08-13T06:36:45.011Z,21.77
2022-08-13T06:37:22.915Z,21.88
2022-08-13T06:37:50.347Z,21.88
2022-08-13T06:38:07.874Z,22.00
2022-08-13T06:38:50.688Z,22.00
2022-08-13T06:39:14.548Z,22.11
2022-08-13T06:40:00.536Z,22.11
2022-08-13T06:40:31.279Z,22.11
2022-08-13T06:40:43.903Z,22.11
2022-08-13T06:41:05.091Z,22.22
2022-08-13T06:41:47.602Z,22.22
2022-08-13T06:42:11.071Z,22.27
2022-08-13T06:42:43.174Z,22.27
2022-08-13T06:43:14.510Z,22.38
2022-08-13T06:44:01.646Z,22.38
2022-08-13T06:44:18.903Z,22.50